createdAt,value
2018-09-30T00:00:14.165Z,84.60
2018-09-30T00:00:52.293Z,84.70
2018-09-30T00:01:30.434Z,84.90
2018-09-30T00:02:08.540Z,85.00
2018-09-30T00:02:47.339Z,85.10
2018-09-30T00:03:27.002Z,85.20
2018-09-30T00:04:05.102Z,85.20
2018-09-30T00:04:44.168Z,85.30
2018-09-30T00:05:22.332Z,85.30
2018-09-30T00:06:00.381Z,85.30
2018-09-30T00:06:38.768Z,85.40
2018-09-30T00:07:16.966Z,85.40
2018-09-30T00:07:55.523Z,85.40
2018-09-30T00:08:33.690Z,85.40
2018-09-30T00:09:12.171Z,85.50
2018-09-30T00:09:51.526Z,85.60
2018-09-30T00:10:30.597Z,85.80
2018-09-30T00:11:08.845Z,85.90
2018-09-30T00:11:47.308Z,86.00
2018-09-30T00:12:25.316Z,86.10
2018-09-30T00:13:04.684Z,86.20
2018-09-30T00:13:42.584Z,86.10
2018-09-30T00:14:20.729Z,86.10
2018-09-30T00:14:58.812Z,86.10
2018-09-30T00:15:36.755Z,86.00
2018-09-30T00:16:14.762Z,86.00
2018-09-30T00:16:55.594Z,86.00
2018-09-30T00:17:33.960Z,85.60
2018-09-30T00:18:13.182Z,85.50
2018-09-30T00:18:51.277Z,85.20
2018-09-30T00:19:30.161Z,85.10
2018-09-30T00:20:08.639Z,85.00
2018-09-30T00:20:46.914Z,85.00
2018-09-30T00:21:25.144Z,85.20
2018-09-30T00:22:03.255Z,85.30
2018-09-30T00:22:41.733Z,85.20
2018-09-30T00:23:21.900Z,85.20
2018-09-30T00:24:03.984Z,85.20
2018-09-30T00:24:46.063Z,85.10
2018-09-30T00:25:28.256Z,84.90
2018-09-30T00:26:10.408Z,84.70
2018-09-30T00:26:52.677Z,84.80
2018-09-30T00:27:31.008Z,84.50
2018-09-30T00:28:08.854Z,84.30
2018-09-30T00:28:46.793Z,84.20
2018-09-30T00:29:25.172Z,84.20
2018-09-30T00:30:03.080Z,84.20
2018-09-30T00:30:41.222Z,84.30
2018-09-30T00:31:19.179Z,84.60
2018-09-30T00:31:57.297Z,84.50
2018-09-30T00:32:36.328Z,85.20
2018-09-30T00:33:14.170Z,84.60
2018-09-30T00:33:56.376Z,84.50
2018-09-30T00:34:34.446Z,84.60
2018-09-30T00:35:12.925Z,84.50
2018-09-30T00:35:52.303Z,84.30
2018-09-30T00:36:30.717Z,84.40
2018-09-30T00:37:09.138Z,84.40
2018-09-30T00:37:47.421Z,84.70
2018-09-30T00:38:25.409Z,84.70
2018-09-30T00:39:03.460Z,84.80
2018-09-30T00:39:41.317Z,84.70
2018-09-30T00:40:20.512Z,84.00
2018-09-30T00:40:58.465Z,84.90
2018-09-30T00:41:36.345Z,84.60
2018-09-30T00:42:14.181Z,85.00
2018-09-30T00:42:52.662Z,84.60
2018-09-30T00:43:30.524Z,84.60
2018-09-30T00:44:08.681Z,84.60
2018-09-30T00:44:47.734Z,84.60
2018-09-30T00:45:26.697Z,84.70
2018-09-30T00:46:04.756Z,84.70
2018-09-30T00:46:42.645Z,84.80
2018-09-30T00:47:20.803Z,84.80
2018-09-30T00:47:58.915Z,85.00
2018-09-30T00:48:36.769Z,85.00
2018-09-30T00:49:15.271Z,85.00
2018-09-30T00:49:53.982Z,85.00
2018-09-30T00:50:32.159Z,85.00
2018-09-30T00:51:10.345Z,85.10
2018-09-30T00:51:48.201Z,85.20
2018-09-30T00:52:26.434Z,85.30
2018-09-30T00:53:04.310Z,85.40
2018-09-30T00:53:42.122Z,85.50
2018-09-30T00:54:20.069Z,85.70
2018-09-30T00:54:57.911Z,85.90
2018-09-30T00:55:35.876Z,85.90
2018-09-30T00:56:13.817Z,86.00
2018-09-30T00:56:51.727Z,86.00
2018-09-30T00:57:29.687Z,86.10
2018-09-30T00:58:07.569Z,86.30
2018-09-30T00:58:45.478Z,86.40
2018-09-30T00:59:23.407Z,86.10
2018-09-30T01:00:01.344Z,86.00
2018-09-30T01:00:39.330Z,85.90
2018-09-30T01:01:17.137Z,85.90
2018-09-30T01:01:55.009Z,85.90
2018-09-30T01:02:32.965Z,85.70
2018-09-30T01:03:11.234Z,85.70
2018-09-30T01:03:49.453Z,85.70
2018-09-30T01:04:27.372Z,85.70
2018-09-30T01:05:05.256Z,85.80
2018-09-30T01:05:43.359Z,85.90
2018-09-30T01:06:21.593Z,85.70
2018-09-30T01:06:59.615Z,85.70
2018-09-30T01:07:38.081Z,85.70
2018-09-30T01:08:18.129Z,85.60
2018-09-30T01:08:56.515Z,85.70
2018-09-30T01:09:34.466Z,85.70
2018-09-30T01:10:12.635Z,85.70
2018-09-30T01:10:51.021Z,85.70
2018-09-30T01:11:29.972Z,85.70
2018-09-30T01:12:08.065Z,85.70
2018-09-30T01:12:47.455Z,85.50
2018-09-30T01:13:26.201Z,85.20
2018-09-30T01:14:05.353Z,85.20
2018-09-30T01:14:44.926Z,85.20
2018-09-30T01:15:23.504Z,85.20
2018-09-30T01:16:02.319Z,85.20
2018-09-30T01:16:40.770Z,85.30
2018-09-30T01:17:19.006Z,85.30
2018-09-30T01:17:59.303Z,85.30
2018-09-30T01:18:37.393Z,85.30
2018-09-30T01:19:16.609Z,85.20
2018-09-30T01:19:55.226Z,85.20
2018-09-30T01:20:33.930Z,85.10
2018-09-30T01:21:15.440Z,85.10
2018-09-30T01:21:54.068Z,85.10
2018-09-30T01:22:32.574Z,85.00
2018-09-30T01:23:10.864Z,85.00
2018-09-30T01:23:50.656Z,84.90
2018-09-30T01:24:30.434Z,84.90
2018-09-30T01:25:10.761Z,84.80
2018-09-30T01:25:49.119Z,84.90
2018-09-30T01:26:27.563Z,84.90
2018-09-30T01:27:06.284Z,84.90
2018-09-30T01:27:45.319Z,84.90
2018-09-30T01:28:23.846Z,84.90
2018-09-30T01:29:02.943Z,84.90
2018-09-30T01:29:41.154Z,85.00
2018-09-30T01:30:21.001Z,85.00
2018-09-30T01:30:59.184Z,85.70
2018-09-30T01:31:37.112Z,85.00
2018-09-30T01:32:15.764Z,85.00
2018-09-30T01:32:53.915Z,85.00
2018-09-30T01:33:32.522Z,85.70
2018-09-30T01:34:10.899Z,85.00
2018-09-30T01:34:49.354Z,85.00
2018-09-30T01:35:27.355Z,85.10
2018-09-30T01:36:05.532Z,85.30
2018-09-30T01:36:43.694Z,85.30
2018-09-30T01:37:23.354Z,85.30
2018-09-30T01:38:01.710Z,85.20
2018-09-30T01:38:40.273Z,85.10
2018-09-30T01:39:19.351Z,85.10
2018-09-30T01:39:59.012Z,85.00
2018-09-30T01:40:37.051Z,85.00
2018-09-30T01:41:15.825Z,85.20
2018-09-30T01:41:53.921Z,86.00
2018-09-30T01:42:32.174Z,85.20
2018-09-30T01:43:10.020Z,85.30
2018-09-30T01:43:48.425Z,85.30
2018-09-30T01:44:27.911Z,85.00
2018-09-30T01:45:07.019Z,85.10
2018-09-30T01:45:45.375Z,85.10
2018-09-30T01:46:23.653Z,85.00
2018-09-30T01:47:02.327Z,85.10
2018-09-30T01:47:40.880Z,85.00
2018-09-30T01:48:19.086Z,85.00
2018-09-30T01:48:57.241Z,85.00
2018-09-30T01:49:35.425Z,84.90
2018-09-30T01:50:20.145Z,84.80
2018-09-30T01:50:58.333Z,84.90
2018-09-30T01:51:36.481Z,84.80
2018-09-30T01:52:23.264Z,84.70
2018-09-30T01:53:02.408Z,84.80
2018-09-30T01:53:45.273Z,84.90
2018-09-30T01:54:27.896Z,84.90
2018-09-30T01:55:05.862Z,84.90
2018-09-30T01:55:44.814Z,84.90
2018-09-30T01:56:23.049Z,85.60
2018-09-30T01:57:01.085Z,84.90
2018-09-30T01:57:40.073Z,84.90
2018-09-30T01:58:17.925Z,84.90
2018-09-30T01:58:55.839Z,85.00
2018-09-30T01:59:33.825Z,84.80
2018-09-30T02:00:13.071Z,84.80
2018-09-30T02:00:51.920Z,84.80
2018-09-30T02:01:32.052Z,84.80
2018-09-30T02:02:10.018Z,84.80
2018-09-30T02:02:49.016Z,84.80
2018-09-30T02:03:26.941Z,84.90
2018-09-30T02:04:04.777Z,84.90
2018-09-30T02:04:43.812Z,84.80
2018-09-30T02:05:22.808Z,84.70
2018-09-30T02:06:01.541Z,84.60
2018-09-30T02:06:39.416Z,84.60
2018-09-30T02:07:17.466Z,84.60
2018-09-30T02:07:55.589Z,84.50
2018-09-30T02:08:33.553Z,84.50
2018-09-30T02:09:11.335Z,84.50
2018-09-30T02:09:49.244Z,84.40
2018-09-30T02:10:27.292Z,84.50
2018-09-30T02:11:06.561Z,84.40
2018-09-30T02:11:45.480Z,84.50
2018-09-30T02:12:23.494Z,84.40
2018-09-30T02:13:01.469Z,84.40
2018-09-30T02:13:39.369Z,84.40
2018-09-30T02:14:17.211Z,84.40
2018-09-30T02:14:55.331Z,84.30
2018-09-30T02:15:34.384Z,84.40
2018-09-30T02:16:12.302Z,84.30
2018-09-30T02:16:52.667Z,84.40
2018-09-30T02:17:30.525Z,84.40
2018-09-30T02:18:09.522Z,84.30
2018-09-30T02:18:47.505Z,84.30
2018-09-30T02:19:25.403Z,84.20
2018-09-30T02:20:03.445Z,84.30
2018-09-30T02:20:41.349Z,84.40
2018-09-30T02:21:19.244Z,84.30
2018-09-30T02:22:00.143Z,84.40
2018-09-30T02:22:38.028Z,84.50
2018-09-30T02:23:15.908Z,84.40
2018-09-30T02:23:55.135Z,84.40
2018-09-30T02:24:33.474Z,84.40
2018-09-30T02:25:11.587Z,84.40
2018-09-30T02:25:49.525Z,84.40
2018-09-30T02:26:27.429Z,84.40
2018-09-30T02:27:05.304Z,84.40
2018-09-30T02:27:43.179Z,84.20
2018-09-30T02:28:21.104Z,84.30
2018-09-30T02:28:59.113Z,84.20
2018-09-30T02:29:36.970Z,84.10
2018-09-30T02:30:15.495Z,84.00
2018-09-30T02:30:53.342Z,83.60
2018-09-30T02:31:31.460Z,83.60
2018-09-30T02:32:09.309Z,83.50
2018-09-30T02:32:47.184Z,83.50
2018-09-30T02:33:25.173Z,83.50
2018-09-30T02:34:03.219Z,83.50
2018-09-30T02:34:42.224Z,83.50
2018-09-30T02:35:20.696Z,83.40
2018-09-30T02:35:58.585Z,83.50
2018-09-30T02:36:37.352Z,83.60
2018-09-30T02:37:15.731Z,83.80
2018-09-30T02:37:53.551Z,83.70
2018-09-30T02:38:31.477Z,83.70
2018-09-30T02:39:10.605Z,83.50
2018-09-30T02:39:48.569Z,83.50
2018-09-30T02:40:26.434Z,83.50
2018-09-30T02:41:05.285Z,83.50
2018-09-30T02:41:43.184Z,83.60
2018-09-30T02:42:21.027Z,83.70
2018-09-30T02:42:59.944Z,84.30
2018-09-30T02:43:37.785Z,83.80
2018-09-30T02:44:16.389Z,83.30
2018-09-30T02:44:54.218Z,82.60
2018-09-30T02:45:33.895Z,82.30
2018-09-30T02:46:11.944Z,82.10
2018-09-30T02:46:49.784Z,82.00
2018-09-30T02:47:27.772Z,82.00
2018-09-30T02:48:05.910Z,81.80
2018-09-30T02:48:43.788Z,81.70
2018-09-30T02:49:21.677Z,80.90
2018-09-30T02:49:59.535Z,80.60
2018-09-30T02:50:37.385Z,80.60
2018-09-30T02:51:16.396Z,80.80
2018-09-30T02:51:54.432Z,81.00
2018-09-30T02:52:32.244Z,80.60
2018-09-30T02:53:11.107Z,80.30
2018-09-30T02:53:49.073Z,79.90
2018-09-30T02:54:26.883Z,79.70
2018-09-30T02:55:04.690Z,79.50
2018-09-30T02:55:42.550Z,79.20
2018-09-30T02:56:20.633Z,79.10
2018-09-30T02:56:58.709Z,78.80
2018-09-30T02:57:36.595Z,78.70
2018-09-30T02:58:15.265Z,78.70
2018-09-30T02:58:53.041Z,78.80
2018-09-30T02:59:31.176Z,78.90
2018-09-30T03:00:09.073Z,79.00
2018-09-30T03:00:46.923Z,78.90
2018-09-30T03:01:25.007Z,78.80
2018-09-30T03:02:02.932Z,78.80
2018-09-30T03:02:40.797Z,78.90
2018-09-30T03:03:18.553Z,78.50
2018-09-30T03:03:56.673Z,78.70
2018-09-30T03:04:34.577Z,78.60
2018-09-30T03:05:12.474Z,78.60
2018-09-30T03:05:50.417Z,78.70
2018-09-30T03:06:32.513Z,78.60
2018-09-30T03:07:15.354Z,78.60
2018-09-30T03:07:57.671Z,78.70
2018-09-30T03:08:40.322Z,78.70
2018-09-30T03:09:19.831Z,79.20
2018-09-30T03:09:57.622Z,79.20
2018-09-30T03:10:36.122Z,78.80
2018-09-30T03:11:13.933Z,78.90
2018-09-30T03:11:51.796Z,78.80
2018-09-30T03:12:30.385Z,78.70
2018-09-30T03:13:08.425Z,78.70
2018-09-30T03:13:46.673Z,78.60
2018-09-30T03:14:24.683Z,78.70
2018-09-30T03:15:02.763Z,78.30
2018-09-30T03:15:40.800Z,78.10
2018-09-30T03:16:19.709Z,77.90
2018-09-30T03:16:57.604Z,77.70
2018-09-30T03:17:35.506Z,77.50
2018-09-30T03:18:14.672Z,77.20
2018-09-30T03:18:52.577Z,77.20
2018-09-30T03:19:30.397Z,76.90
2018-09-30T03:20:08.336Z,76.30
2018-09-30T03:20:47.246Z,77.00
2018-09-30T03:21:27.138Z,75.90
2018-09-30T03:22:04.987Z,75.80
2018-09-30T03:22:43.127Z,75.70
2018-09-30T03:23:21.140Z,75.60
2018-09-30T03:23:59.048Z,75.60
2018-09-30T03:24:37.909Z,75.60
2018-09-30T03:25:15.824Z,75.80
2018-09-30T03:25:54.455Z,75.90
2018-09-30T03:26:32.392Z,75.60
2018-09-30T03:27:10.511Z,75.50
2018-09-30T03:27:48.497Z,75.20
2018-09-30T03:28:26.397Z,75.20
2018-09-30T03:29:04.665Z,76.10
2018-09-30T03:29:43.153Z,75.50
2018-09-30T03:30:20.999Z,75.30
2018-09-30T03:31:00.187Z,75.20
2018-09-30T03:31:42.521Z,75.00
2018-09-30T03:32:20.512Z,75.10
2018-09-30T03:32:58.374Z,75.30
2018-09-30T03:33:36.822Z,74.90
2018-09-30T03:34:14.765Z,74.80
2018-09-30T03:34:52.633Z,74.70
2018-09-30T03:35:30.544Z,74.00
2018-09-30T03:36:08.460Z,74.10
2018-09-30T03:36:46.282Z,74.20
2018-09-30T03:37:24.274Z,74.30
2018-09-30T03:38:02.315Z,74.20
2018-09-30T03:38:40.168Z,74.20
2018-09-30T03:39:18.058Z,74.30
2018-09-30T03:39:55.876Z,74.40
2018-09-30T03:40:33.989Z,74.40
2018-09-30T03:41:11.964Z,74.30
2018-09-30T03:41:50.156Z,74.20
2018-09-30T03:42:28.181Z,74.20
2018-09-30T03:43:07.470Z,74.00
2018-09-30T03:43:45.381Z,73.90
2018-09-30T03:44:23.229Z,73.70
2018-09-30T03:45:01.281Z,73.50
2018-09-30T03:45:39.209Z,73.50
2018-09-30T03:46:17.035Z,73.30
2018-09-30T03:46:54.997Z,73.30
2018-09-30T03:47:33.774Z,73.40
2018-09-30T03:48:11.615Z,73.50
2018-09-30T03:48:50.187Z,73.30
2018-09-30T03:49:29.315Z,73.20
2018-09-30T03:50:07.413Z,73.20
2018-09-30T03:50:45.620Z,73.10
2018-09-30T03:51:24.269Z,73.30
2018-09-30T03:52:02.407Z,73.30
2018-09-30T03:52:40.477Z,73.40
2018-09-30T03:53:19.845Z,73.40
2018-09-30T03:53:57.752Z,73.70
2018-09-30T03:54:35.772Z,73.50
2018-09-30T03:55:13.622Z,73.40
2018-09-30T03:55:51.794Z,73.20
2018-09-30T03:56:29.783Z,73.20
2018-09-30T03:57:08.932Z,73.20
2018-09-30T03:57:47.029Z,73.20
2018-09-30T03:58:24.955Z,72.80
2018-09-30T03:59:02.942Z,72.60
2018-09-30T03:59:41.248Z,73.20
2018-09-30T04:00:20.133Z,72.50
2018-09-30T04:00:59.199Z,72.10
2018-09-30T04:01:37.019Z,72.80
2018-09-30T04:02:14.938Z,72.00
2018-09-30T04:02:52.742Z,72.00
2018-09-30T04:03:30.791Z,72.00
2018-09-30T04:04:08.709Z,72.10
2018-09-30T04:04:46.708Z,72.30
2018-09-30T04:05:24.695Z,72.20
2018-09-30T04:06:02.608Z,72.10
2018-09-30T04:06:41.758Z,72.10
2018-09-30T04:07:19.622Z,72.00
2018-09-30T04:07:57.454Z,72.00
2018-09-30T04:08:38.224Z,71.90
2018-09-30T04:09:16.602Z,71.90
2018-09-30T04:09:55.832Z,72.00
2018-09-30T04:10:36.510Z,72.20
2018-09-30T04:11:15.171Z,71.90
2018-09-30T04:11:53.410Z,71.70
2018-09-30T04:12:31.732Z,71.50
2018-09-30T04:13:10.038Z,71.70
2018-09-30T04:13:49.236Z,71.80
2018-09-30T04:14:27.437Z,71.90
2018-09-30T04:15:06.533Z,71.80
2018-09-30T04:15:45.307Z,71.70
2018-09-30T04:16:23.342Z,71.30
2018-09-30T04:17:01.272Z,71.10
2018-09-30T04:17:39.169Z,71.20
2018-09-30T04:18:17.127Z,71.40
2018-09-30T04:18:55.017Z,71.60
2018-09-30T04:19:32.852Z,71.60
2018-09-30T04:20:10.941Z,71.70
2018-09-30T04:20:50.686Z,71.70
2018-09-30T04:21:29.481Z,71.80
2018-09-30T04:22:11.834Z,71.90
2018-09-30T04:22:49.715Z,71.90
2018-09-30T04:23:28.481Z,72.20
2018-09-30T04:24:10.601Z,71.70
2018-09-30T04:24:48.653Z,71.70
2018-09-30T04:25:26.552Z,72.10
2018-09-30T04:26:04.358Z,71.90
2018-09-30T04:26:44.132Z,71.60
2018-09-30T04:27:22.043Z,71.40
2018-09-30T04:28:00.452Z,70.30
2018-09-30T04:28:38.513Z,69.80
2018-09-30T04:29:17.743Z,69.70
2018-09-30T04:29:55.599Z,69.60
2018-09-30T04:30:34.821Z,69.70
2018-09-30T04:31:12.861Z,69.50
2018-09-30T04:31:51.067Z,69.40
2018-09-30T04:32:29.086Z,69.50
2018-09-30T04:33:07.522Z,69.50
2018-09-30T04:33:45.988Z,69.40
2018-09-30T04:34:24.454Z,69.40
2018-09-30T04:35:02.288Z,69.40
2018-09-30T04:35:40.173Z,69.50
2018-09-30T04:36:17.934Z,69.70
2018-09-30T04:36:55.757Z,69.90
2018-09-30T04:37:34.582Z,69.70
2018-09-30T04:38:12.616Z,69.90
2018-09-30T04:38:50.597Z,70.00
2018-09-30T04:39:28.413Z,69.60
2018-09-30T04:40:06.452Z,69.60
2018-09-30T04:40:45.350Z,69.60
2018-09-30T04:41:23.348Z,69.70
2018-09-30T04:42:02.637Z,69.40
2018-09-30T04:42:40.514Z,68.90
2018-09-30T04:43:18.569Z,68.80
2018-09-30T04:43:56.513Z,68.90
2018-09-30T04:44:34.365Z,69.00
2018-09-30T04:45:12.478Z,69.10
2018-09-30T04:45:50.300Z,69.20
2018-09-30T04:46:28.447Z,69.20
2018-09-30T04:47:06.259Z,69.30
2018-09-30T04:47:44.135Z,69.60
2018-09-30T04:48:23.489Z,69.60
2018-09-30T04:49:01.278Z,69.60
2018-09-30T04:49:39.236Z,69.90
2018-09-30T04:50:17.326Z,70.10
2018-09-30T04:50:55.187Z,70.40
2018-09-30T04:51:33.158Z,70.80
2018-09-30T04:52:11.559Z,70.70
2018-09-30T04:52:51.084Z,70.60
2018-09-30T04:53:28.950Z,70.70
2018-09-30T04:54:06.810Z,70.40
2018-09-30T04:54:44.744Z,69.60
2018-09-30T04:55:23.070Z,69.30
2018-09-30T04:56:01.052Z,69.30
2018-09-30T04:56:39.472Z,69.10
2018-09-30T04:57:18.214Z,67.80
2018-09-30T04:57:57.255Z,67.20
2018-09-30T04:58:35.914Z,67.30
2018-09-30T04:59:13.792Z,67.20
2018-09-30T04:59:51.574Z,67.90
2018-09-30T05:00:29.391Z,68.20
2018-09-30T05:01:07.341Z,68.30
2018-09-30T05:01:46.402Z,68.60
2018-09-30T05:02:24.348Z,69.00
2018-09-30T05:03:02.579Z,69.10
2018-09-30T05:03:40.468Z,69.30
2018-09-30T05:04:18.781Z,69.00
2018-09-30T05:04:57.609Z,68.80
2018-09-30T05:05:35.558Z,68.40
2018-09-30T05:06:13.952Z,68.20
2018-09-30T05:06:58.685Z,68.20
2018-09-30T05:07:37.527Z,68.10
2018-09-30T05:08:15.511Z,68.10
2018-09-30T05:08:53.541Z,68.00
2018-09-30T05:09:31.452Z,68.00
2018-09-30T05:10:09.352Z,67.90
2018-09-30T05:10:47.268Z,67.70
2018-09-30T05:11:25.426Z,67.60
2018-09-30T05:12:03.459Z,67.50
2018-09-30T05:12:41.500Z,67.20
2018-09-30T05:13:19.363Z,66.80
2018-09-30T05:13:57.180Z,66.90
2018-09-30T05:14:35.122Z,67.50
2018-09-30T05:15:12.990Z,67.40
2018-09-30T05:15:50.964Z,67.20
2018-09-30T05:16:28.896Z,67.40
2018-09-30T05:17:06.741Z,68.30
2018-09-30T05:17:44.590Z,67.70
2018-09-30T05:18:23.720Z,67.50
2018-09-30T05:19:02.015Z,67.20
2018-09-30T05:19:39.976Z,67.00
2018-09-30T05:20:17.869Z,67.10
2018-09-30T05:20:55.785Z,67.90
2018-09-30T05:21:33.668Z,67.10
2018-09-30T05:22:12.094Z,66.80
2018-09-30T05:22:50.019Z,66.70
2018-09-30T05:23:29.067Z,66.60
2018-09-30T05:24:07.925Z,66.70
2018-09-30T05:24:46.058Z,66.70
2018-09-30T05:25:24.226Z,67.50
2018-09-30T05:26:02.321Z,67.70
2018-09-30T05:26:40.265Z,67.40
2018-09-30T05:27:18.527Z,67.50
2018-09-30T05:27:56.906Z,67.90
2018-09-30T05:28:34.822Z,67.00
2018-09-30T05:29:12.686Z,66.10
2018-09-30T05:29:50.614Z,65.70
2018-09-30T05:30:28.596Z,65.70
2018-09-30T05:31:06.773Z,66.50
2018-09-30T05:31:44.601Z,65.90
2018-09-30T05:32:22.496Z,65.70
2018-09-30T05:33:00.352Z,65.70
2018-09-30T05:33:38.356Z,66.10
2018-09-30T05:34:16.206Z,66.10
2018-09-30T05:34:54.056Z,66.40
2018-09-30T05:35:31.961Z,67.10
2018-09-30T05:36:12.947Z,67.50
2018-09-30T05:36:50.792Z,67.30
2018-09-30T05:37:28.786Z,66.90
2018-09-30T05:38:07.242Z,66.20
2018-09-30T05:38:45.194Z,65.80
2018-09-30T05:39:23.108Z,65.80
2018-09-30T05:40:01.029Z,66.30
2018-09-30T05:40:39.207Z,66.40
2018-09-30T05:41:17.032Z,66.50
2018-09-30T05:41:55.702Z,66.80
2018-09-30T05:42:33.650Z,67.10
2018-09-30T05:43:13.124Z,67.20
2018-09-30T05:43:50.998Z,67.30
2018-09-30T05:44:29.425Z,67.20
2018-09-30T05:45:07.373Z,67.20
2018-09-30T05:45:45.285Z,67.20
2018-09-30T05:46:23.189Z,67.30
2018-09-30T05:47:01.216Z,67.40
2018-09-30T05:47:39.198Z,67.40
2018-09-30T05:48:17.224Z,67.70
2018-09-30T05:48:56.424Z,67.70
2018-09-30T05:49:34.409Z,67.80
2018-09-30T05:50:12.449Z,67.70
2018-09-30T05:50:50.628Z,67.80
2018-09-30T05:51:28.582Z,67.50
2018-09-30T05:52:07.394Z,67.40
2018-09-30T05:52:46.329Z,67.20
2018-09-30T05:53:24.102Z,67.20
2018-09-30T05:54:01.977Z,67.40
2018-09-30T05:54:39.843Z,67.70
2018-09-30T05:55:17.760Z,68.00
2018-09-30T05:55:55.676Z,68.00
2018-09-30T05:56:34.326Z,68.00
2018-09-30T05:57:13.299Z,67.80
2018-09-30T05:57:53.626Z,67.90
2018-09-30T05:58:31.946Z,67.20
2018-09-30T05:59:09.886Z,65.70
2018-09-30T05:59:47.721Z,66.20
2018-09-30T06:00:25.458Z,66.30
2018-09-30T06:01:03.358Z,66.10
2018-09-30T06:01:43.930Z,66.10
2018-09-30T06:02:21.789Z,65.80
2018-09-30T06:02:59.864Z,66.10
2018-09-30T06:03:37.732Z,65.10
2018-09-30T06:04:15.830Z,64.80
2018-09-30T06:04:53.704Z,64.40
2018-09-30T06:05:32.511Z,63.90
2018-09-30T06:06:10.427Z,63.90
2018-09-30T06:06:48.354Z,64.10
2018-09-30T06:07:27.762Z,64.20
2018-09-30T06:08:05.732Z,64.20
2018-09-30T06:08:43.573Z,64.30
2018-09-30T06:09:21.513Z,64.60
2018-09-30T06:09:59.452Z,64.60
2018-09-30T06:10:37.415Z,64.70
2018-09-30T06:11:16.000Z,65.10
2018-09-30T06:11:53.812Z,66.00
2018-09-30T06:12:31.688Z,66.10
2018-09-30T06:13:09.473Z,65.80
2018-09-30T06:13:47.424Z,65.20
2018-09-30T06:14:25.532Z,64.70
2018-09-30T06:15:03.425Z,64.60
2018-09-30T06:15:41.305Z,64.70
2018-09-30T06:16:19.162Z,64.90
2018-09-30T06:16:58.065Z,65.00
2018-09-30T06:17:35.885Z,65.30
2018-09-30T06:18:13.853Z,65.50
2018-09-30T06:18:51.797Z,65.50
2018-09-30T06:19:30.681Z,65.50
2018-09-30T06:20:10.699Z,65.50
2018-09-30T06:20:49.582Z,65.20
2018-09-30T06:21:28.508Z,65.20
2018-09-30T06:22:07.691Z,65.20
2018-09-30T06:22:47.505Z,65.20
2018-09-30T06:23:25.447Z,65.20
2018-09-30T06:24:05.023Z,65.20
2018-09-30T06:24:43.244Z,65.20
2018-09-30T06:25:21.165Z,65.00
2018-09-30T06:26:04.626Z,65.20
2018-09-30T06:26:42.825Z,65.10
2018-09-30T06:27:21.245Z,65.20
2018-09-30T06:27:59.274Z,65.40
2018-09-30T06:28:37.356Z,65.50
2018-09-30T06:29:16.947Z,65.70
2018-09-30T06:29:54.871Z,65.20
2018-09-30T06:30:33.773Z,65.10
2018-09-30T06:31:11.668Z,65.00
2018-09-30T06:31:49.633Z,65.00
2018-09-30T06:32:27.497Z,65.10
2018-09-30T06:33:05.562Z,65.00
2018-09-30T06:33:43.489Z,65.00
2018-09-30T06:34:22.358Z,65.00
2018-09-30T06:35:00.198Z,65.30
2018-09-30T06:35:38.105Z,65.20
2018-09-30T06:36:17.700Z,65.20
2018-09-30T06:36:55.538Z,65.20
2018-09-30T06:37:33.389Z,65.40
2018-09-30T06:38:11.398Z,65.40
2018-09-30T06:38:49.656Z,65.40
2018-09-30T06:39:27.805Z,65.50
2018-09-30T06:40:06.392Z,65.40
2018-09-30T06:40:44.256Z,65.00
2018-09-30T06:41:22.167Z,65.00
2018-09-30T06:42:00.996Z,64.90
2018-09-30T06:42:39.109Z,65.00
2018-09-30T06:43:16.982Z,64.80
2018-09-30T06:43:55.030Z,64.50
2018-09-30T06:44:34.802Z,64.60
2018-09-30T06:45:13.106Z,64.60
2018-09-30T06:45:50.935Z,64.40
2018-09-30T06:46:28.870Z,64.70
2018-09-30T06:47:06.969Z,64.80
2018-09-30T06:47:44.840Z,64.90
2018-09-30T06:48:22.701Z,65.10
2018-09-30T06:49:00.820Z,65.10
2018-09-30T06:49:39.093Z,65.00
2018-09-30T06:51:20.288Z,65.30
2018-09-30T06:51:58.169Z,65.50
2018-09-30T06:52:35.989Z,65.70
2018-09-30T06:53:13.879Z,65.50
2018-09-30T06:53:51.760Z,65.40
2018-09-30T06:54:29.688Z,65.50
2018-09-30T06:55:08.729Z,65.70
2018-09-30T06:55:46.649Z,65.80
2018-09-30T06:56:25.619Z,65.90
2018-09-30T06:57:03.552Z,65.90
2018-09-30T06:57:41.367Z,66.10
2018-09-30T06:58:19.251Z,66.10
2018-09-30T06:58:57.165Z,66.20
2018-09-30T06:59:35.976Z,65.90
2018-09-30T07:00:13.844Z,65.60
2018-09-30T07:00:51.716Z,65.70
2018-09-30T07:01:29.712Z,65.40
2018-09-30T07:02:07.589Z,65.30
2018-09-30T07:02:45.580Z,65.40
2018-09-30T07:03:23.404Z,65.20
2018-09-30T07:04:01.488Z,65.30
2018-09-30T07:04:39.405Z,65.40
2018-09-30T07:05:17.508Z,65.10
2018-09-30T07:05:55.367Z,65.00
2018-09-30T07:06:33.188Z,65.30
2018-09-30T07:07:10.999Z,64.80
2018-09-30T07:07:48.801Z,63.90
2018-09-30T07:08:26.898Z,64.40
2018-09-30T07:09:06.426Z,63.80
2018-09-30T07:09:44.377Z,63.90
2018-09-30T07:10:22.330Z,63.70
2018-09-30T07:11:00.600Z,63.60
2018-09-30T07:11:38.508Z,63.60
2018-09-30T07:12:16.592Z,63.70
2018-09-30T07:12:54.340Z,63.70
2018-09-30T07:13:32.214Z,64.20
2018-09-30T07:14:10.388Z,64.70
2018-09-30T07:14:49.254Z,64.40
2018-09-30T07:15:27.180Z,64.00
2018-09-30T07:16:05.110Z,63.90
2018-09-30T07:16:43.014Z,64.10
2018-09-30T07:17:20.965Z,64.10
2018-09-30T07:17:58.880Z,64.40
2018-09-30T07:18:37.113Z,64.60
2018-09-30T07:19:14.941Z,64.80
2018-09-30T07:19:52.712Z,64.80
2018-09-30T07:20:30.743Z,65.40
2018-09-30T07:21:08.946Z,65.80
2018-09-30T07:21:46.915Z,66.00
2018-09-30T07:22:25.044Z,66.90
2018-09-30T07:23:03.190Z,66.60
2018-09-30T07:23:41.156Z,66.60
2018-09-30T07:24:18.991Z,66.60
2018-09-30T07:24:56.824Z,66.70
2018-09-30T07:25:34.781Z,66.70
2018-09-30T07:26:12.699Z,66.80
2018-09-30T07:26:51.680Z,66.90
2018-09-30T07:27:29.601Z,67.00
2018-09-30T07:28:08.819Z,67.10
2018-09-30T07:28:46.881Z,67.20
2018-09-30T07:29:24.654Z,67.20
2018-09-30T07:30:02.590Z,67.10
2018-09-30T07:30:40.469Z,67.00
2018-09-30T07:31:18.667Z,66.90
2018-09-30T07:31:56.512Z,67.60
2018-09-30T07:32:34.741Z,66.70
2018-09-30T07:33:14.855Z,66.70
2018-09-30T07:33:53.726Z,66.50
2018-09-30T07:34:32.703Z,66.50
2018-09-30T07:35:10.845Z,66.50
2018-09-30T07:35:48.772Z,66.50
2018-09-30T07:36:27.037Z,66.60
2018-09-30T07:37:04.815Z,66.50
2018-09-30T07:37:42.705Z,66.60
2018-09-30T07:38:20.605Z,66.60
2018-09-30T07:38:58.484Z,66.70
2018-09-30T07:39:36.599Z,66.80
2018-09-30T07:40:14.700Z,66.70
2018-09-30T07:40:52.738Z,66.80
2018-09-30T07:41:30.773Z,66.90
2018-09-30T07:42:08.700Z,67.00
2018-09-30T07:42:46.512Z,67.00
2018-09-30T07:43:24.445Z,67.10
2018-09-30T07:44:02.340Z,67.30
2018-09-30T07:44:40.242Z,67.30
2018-09-30T07:45:18.215Z,67.60
2018-09-30T07:45:56.104Z,67.70
2018-09-30T07:46:34.102Z,67.90
2018-09-30T07:47:12.082Z,67.90
2018-09-30T07:47:49.944Z,67.80
2018-09-30T07:48:27.821Z,67.70
2018-09-30T07:49:05.706Z,67.40
2018-09-30T07:49:43.630Z,67.40
2018-09-30T07:50:21.558Z,67.40
2018-09-30T07:50:59.498Z,67.20
2018-09-30T07:51:37.481Z,67.20
2018-09-30T07:52:15.393Z,67.20
2018-09-30T07:52:54.392Z,67.30
2018-09-30T07:53:33.171Z,67.10
2018-09-30T07:54:11.028Z,67.10
2018-09-30T07:54:48.860Z,66.90
2018-09-30T07:55:26.778Z,67.00
2018-09-30T07:56:04.615Z,67.10
2018-09-30T07:56:42.611Z,67.10
2018-09-30T07:57:20.465Z,67.30
2018-09-30T07:57:58.776Z,67.30
2018-09-30T07:58:36.684Z,67.40
2018-09-30T07:59:16.006Z,67.40
2018-09-30T07:59:53.909Z,67.30
2018-09-30T08:00:31.736Z,67.20
2018-09-30T08:01:09.727Z,67.20
2018-09-30T08:01:47.668Z,66.90
2018-09-30T08:02:25.545Z,66.70
2018-09-30T08:03:04.318Z,66.70
2018-09-30T08:03:42.173Z,66.70
2018-09-30T08:04:20.957Z,67.00
2018-09-30T08:04:58.976Z,66.70
2018-09-30T08:05:36.836Z,66.80
2018-09-30T08:09:17.597Z,66.80
2018-09-30T08:09:55.543Z,67.20
2018-09-30T08:10:34.903Z,67.30
2018-09-30T08:11:16.203Z,67.10
2018-09-30T08:11:54.825Z,67.00
2018-09-30T08:12:32.655Z,67.40
2018-09-30T08:13:11.722Z,67.40
2018-09-30T08:13:49.742Z,67.50
2018-09-30T08:14:27.496Z,67.40
2018-09-30T08:15:07.297Z,67.30
2018-09-30T08:15:45.266Z,67.30
2018-09-30T08:16:23.263Z,67.50
2018-09-30T08:17:02.089Z,67.60
2018-09-30T08:17:40.210Z,67.40
2018-09-30T08:18:18.387Z,67.60